Sea-land Charger — WDB9948 — position and weather

sailwx.info

Track history (hours):
 
Tides and Currents Weather Stations Pressure Air Temp Water Temp Dewpoint Dewpoint Depression Visibility Wind Speed Wind Dir Waves Ship Positions

Sea-land Charger

More information available from US FCC via Universal Licensing System.

Last reported at 2014-Sep-16 12:00 UTC. Time now 2014-Sep-18 13:42 UTC.
Position N 52°24' W 155°24'.

Type: Cargo ship. MMSI: 303279000.

Wind from 180 at 22 knots

Barometer 1011.2 mb
Air temperature 13.0 ° C
Dewpoint 6.8 ° C
Water temperature 14.0 ° C

Date/timePositionNaut miles runAvg speedWind from/ knotsBaromVisibWave heightAir tempDewpointWater temp
2014-Sep-16 12:00N 52°24' W 155°24'19316.1 180 / 221011.2 13.0 6.814.0
2014-Sep-16 00:00N 50°54' W 150°48'18815.7 300 / 111013.8 1.016.0 8.115.0
2014-Sep-15 12:00N 49°18' W 146°36'8914.8 260 / 131013.0 16.010.317.0
2014-Sep-15 06:00N 48°30' W 144°42'9315.6 350 / 131013.510.8 1.015.511.818.0
2014-Sep-15 00:00N 47°36' W 142°48'9415.7 160 / 131012.810.8 1.020.016.719.0
2014-Sep-14 18:00N 46°42' W 140°54'9916.5 160 / 91016.010.8 0.519.513.420.0
2014-Sep-14 12:00N 45°42' W 139°00'29416.4 120 / 91017.010.8 0.518.512.220.0
2014-Sep-13 18:00N 42°36' W 133°42'27915.8 030 / 161017.610.8 2.020.014.921.0
2014-Sep-13 00:22N 39°25' W 129°12'922.3
2014-Sep-13 00:00N 39°18' W 129°06'511.5 020 / 191014.210.8 2.020.014.920.0
2014-Sep-12 23:32N 39°16' W 128°60'1615.8
2014-Sep-12 22:30N 39°04' W 128°45'1615.6
2014-Sep-12 21:28N 38°53' W 128°30'3416.1
2014-Sep-12 19:20N 38°29' W 127°59'1215.6
2014-Sep-12 18:33N 38°25' W 127°44'1120.0
2014-Sep-12 18:00N 38°24' W 127°30'1013.5 030 / 51014.010.8 1.019.513.419.0
2014-Sep-12 17:15N 38°24' W 127°17'1215.3
2014-Sep-12 16:28N 38°23' W 127°02'1617.9
2014-Sep-12 15:33N 38°22' W 126°41'1717.1
2014-Sep-12 14:33N 38°21' W 126°20'1615.5
2014-Sep-12 13:33N 38°20' W 125°60'1615.8
2014-Sep-12 12:33N 38°19' W 125°40'1221.8
2014-Sep-12 12:00N 38°18' W 125°24'3 7.0 320 / 21012.0 0.0 14.014.017.0
2014-Sep-12 11:33N 38°18' W 125°20'1515.4
2014-Sep-12 10:33N 38°17' W 125°01'1515.3
2014-Sep-12 09:33N 38°15' W 124°41'1515.5
2014-Sep-12 08:33N 38°14' W 124°22'1515.4
2014-Sep-12 07:33N 38°13' W 124°02'1312.9
2014-Sep-12 06:34N 38°12' W 123°46'1413.9
2014-Sep-12 05:33N 38°10' W 123°28'1514.7
2014-Sep-12 04:33N 38°02' W 123°13'1615.5
2014-Sep-12 03:33N 37°53' W 122°57'1514.7
2014-Sep-12 02:33N 37°46' W 122°41'1414.1
2014-Sep-12 01:33N 37°49' W 122°23'3 3.4
2014-Sep-12 00:33N 37°49' W 122°19'0 0.0
2014-Sep-11 23:33N 37°49' W 122°19'0 0.0
2014-Sep-11 22:33N 37°49' W 122°19'0 0.0
2014-Sep-11 21:33N 37°49' W 122°19'0 0.0
2014-Sep-11 20:33N 37°49' W 122°19'0 0.0
2014-Sep-11 19:33N 37°49' W 122°19'0 0.0
2014-Sep-11 18:33N 37°49' W 122°19'0 0.0
2014-Sep-11 17:33N 37°49' W 122°19'0 0.0
2014-Sep-11 16:33N 37°49' W 122°19'0 0.0
2014-Sep-11 15:33N 37°49' W 122°19'0 0.0
2014-Sep-11 14:33N 37°49' W 122°19'2 2.2
2014-Sep-11 13:33N 37°48' W 122°22'9 8.6
2014-Sep-11 12:33N 37°47' W 122°33'1211.6
2014-Sep-11 11:33N 37°42' W 122°45'1110.5
2014-Sep-11 10:33N 37°36' W 122°56'1110.7
2014-Sep-11 09:33N 37°26' W 123°01'1312.8
2014-Sep-11 08:33N 37°13' W 122°58'1313.1
2014-Sep-11 07:33N 37°01' W 122°53'1918.6
2014-Sep-11 06:33N 36°44' W 122°44'2121.3
2014-Sep-11 05:33N 36°24' W 122°33'2121.1
2014-Sep-11 04:33N 36°05' W 122°22'2120.8
2014-Sep-11 03:33N 35°48' W 122°08'2120.9
2014-Sep-11 02:33N 35°31' W 121°52'2120.9
2014-Sep-11 01:33N 35°15' W 121°36'2120.7
2014-Sep-11 00:33N 34°59' W 121°21'1918.6
2014-Sep-10 23:33N 34°44' W 121°07'1412.9
2014-Sep-10 22:28N 34°33' W 120°56'1212.2
2014-Sep-10 21:29N 34°25' W 120°46'1415.4
2014-Sep-10 20:33N 34°21' W 120°29'1715.9
2014-Sep-10 19:29N 34°16' W 120°09'1415.4
2014-Sep-10 18:33N 34°13' W 119°52'1615.7
2014-Sep-10 17:33N 34°09' W 119°34'1616.1
2014-Sep-10 16:33N 34°04' W 119°15'1615.7
2014-Sep-10 15:34N 33°57' W 118°59'1515.1
2014-Sep-10 14:33N 33°49' W 118°43'1111.3
2014-Sep-10 13:33N 33°43' W 118°31'1110.8
2014-Sep-10 12:33N 33°38' W 118°20'6 5.8
2014-Sep-10 11:33N 33°43' W 118°16'1 1.4
2014-Sep-10 10:32N 33°44' W 118°15'0 0.0
2014-Sep-10 09:32N 33°44' W 118°15'0 0.0
2014-Sep-10 08:32N 33°44' W 118°15'0 0.0
2014-Sep-10 07:32N 33°44' W 118°15'0 0.0
2014-Sep-10 06:29N 33°44' W 118°15'0 0.0
2014-Sep-10 05:26N 33°44' W 118°15'0 0.0
2014-Sep-10 04:26N 33°44' W 118°15'0 0.0
2014-Sep-10 03:32N 33°44' W 118°15'0 0.0
2014-Sep-10 02:32N 33°44' W 118°15'0 0.0
2014-Sep-10 01:17N 33°44' W 118°15'0 0.0
2014-Sep-10 00:23N 33°44' W 118°15'0 0.0
2014-Sep-09 23:29N 33°44' W 118°15'0 0.0
2014-Sep-09 22:32N 33°44' W 118°15'0 0.0
2014-Sep-09 21:32N 33°44' W 118°15'0 0.0
2014-Sep-09 20:32N 33°44' W 118°15'0 0.0
2014-Sep-09 19:32N 33°44' W 118°15'0 0.0
2014-Sep-09 17:11N 33°44' W 118°15'0 0.0
2014-Sep-09 16:32N 33°44' W 118°15'0 0.0
2014-Sep-09 15:32N 33°44' W 118°15'0 0.0
2014-Sep-09 13:29N 33°44' W 118°15'0 0.0
2014-Sep-09 12:32N 33°44' W 118°15'0 0.0
2014-Sep-09 11:29N 33°44' W 118°15'0 0.0
2014-Sep-09 10:23N 33°44' W 118°15'0 0.0
2014-Sep-09 09:32N 33°44' W 118°15'0 0.0
2014-Sep-09 08:26N 33°44' W 118°15'0 0.0
2014-Sep-09 07:29N 33°44' W 118°15'0 0.0
2014-Sep-09 06:32N 33°44' W 118°15'0 0.0
2014-Sep-09 05:32N 33°44' W 118°15'0 0.0
2014-Sep-09 04:20N 33°44' W 118°15'0 0.0
2014-Sep-09 03:26N 33°44' W 118°15'0 0.0
2014-Sep-09 02:32N 33°44' W 118°15'0 0.0
2014-Sep-09 00:32N 33°44' W 118°15'0 0.0
2014-Sep-08 23:32N 33°44' W 118°15'0 0.0
2014-Sep-08 22:29N 33°44' W 118°15'0 0.0
2014-Sep-08 21:29N 33°44' W 118°15'0 0.0
2014-Sep-08 20:32N 33°44' W 118°15'0 0.0
2014-Sep-08 18:32N 33°44' W 118°15'0 0.0
2014-Sep-08 17:29N 33°44' W 118°15'0 0.0
2014-Sep-08 16:32N 33°44' W 118°15'0 0.0
2014-Sep-08 15:31N 33°44' W 118°15'0 0.0
2014-Sep-08 14:28N 33°44' W 118°15'0 0.0
2014-Sep-08 13:28N 33°44' W 118°15'0 0.0
2014-Sep-08 12:31N 33°44' W 118°15'0 0.0
2014-Sep-08 11:33N 33°44' W 118°15'4 4.2
2014-Sep-08 10:32N 33°40' W 118°15'7 7.1
2014-Sep-08 09:33N 33°37' W 118°23'1110.9
2014-Sep-08 08:33N 33°43' W 118°34'1212.2
2014-Sep-08 07:33N 33°49' W 118°47'1413.9
2014-Sep-08 06:34N 33°55' W 119°01'1514.5
2014-Sep-08 05:34N 34°02' W 119°17'1414.0
2014-Sep-08 04:33N 34°06' W 119°33'1414.3
2014-Sep-08 03:33N 34°10' W 119°50'1413.8
2014-Sep-08 02:33N 34°14' W 120°06'1413.7
2014-Sep-08 01:33N 34°17' W 120°22'1513.7
2014-Sep-08 00:26N 34°21' W 120°40'4 9.2
2014-Sep-08 00:00N 34°18' W 120°42'1226.5 320 / 151011.010.8 17.013.519.0
2014-Sep-07 23:33N 34°24' W 120°54'2813.8
2014-Sep-07 21:33N 34°30' W 121°27'2019.5
2014-Sep-07 20:33N 34°34' W 121°50'1919.2
2014-Sep-07 19:33N 34°38' W 122°12'1919.0
2014-Sep-07 18:33N 34°42' W 122°35'1119.0
2014-Sep-07 18:00N 34°42' W 122°48'920.7 320 / 101015.010.8 18.513.219.0
2014-Sep-07 17:33N 34°46' W 122°58'2019.0
2014-Sep-07 16:31N 34°51' W 123°21'1818.6
2014-Sep-07 15:33N 34°54' W 123°42'1918.7
2014-Sep-07 14:33N 34°58' W 124°05'2218.4
2014-Sep-07 13:20N 35°03' W 124°32'1518.8
2014-Sep-07 12:33N 35°07' W 124°49'916.4
2014-Sep-07 12:00N 35°06' W 125°00'1522.8 300 / 61014.710.8 18.512.220.0
2014-Sep-07 11:20N 35°13' W 125°16'1618.8
2014-Sep-07 10:30N 35°18' W 125°34'1819.1
2014-Sep-07 09:33N 35°23' W 125°55'1919.2
2014-Sep-07 08:33N 35°29' W 126°18'2118.8
2014-Sep-07 07:26N 35°41' W 126°39'4219.0
2014-Sep-07 05:15N 36°02' W 127°23'12123.0
2014-Sep-07 00:00N 36°48' W 129°42'   320 / 141015.510.8 1.022.514.021.0
Track history (hours):
 
Tides and Currents Weather Stations Pressure Air Temp Water Temp Dewpoint Dewpoint Depression Visibility Wind Speed Wind Dir Waves Ship Positions

Sea-land Charger

More information available from US FCC via Universal Licensing System.

Last reported at 2014-Sep-16 12:00 UTC. Time now 2014-Sep-18 13:42 UTC.
Position N 52°24' W 155°24'.

Type: Cargo ship. MMSI: 303279000.

Wind from 180 at 22 knots

Barometer 1011.2 mb
Air temperature 13.0 ° C
Dewpoint 6.8 ° C
Water temperature 14.0 ° C

Date/timePositionNaut miles runAvg speedWind from/ knotsBaromVisibWave heightAir tempDewpointWater temp
2014-Sep-16 12:00N 52°24' W 155°24'19316.1 180 / 221011.2 13.0 6.814.0
2014-Sep-16 00:00N 50°54' W 150°48'18815.7 300 / 111013.8 1.016.0 8.115.0
2014-Sep-15 12:00N 49°18' W 146°36'8914.8 260 / 131013.0 16.010.317.0
2014-Sep-15 06:00N 48°30' W 144°42'9315.6 350 / 131013.510.8 1.015.511.818.0
2014-Sep-15 00:00N 47°36' W 142°48'9415.7 160 / 131012.810.8 1.020.016.719.0
2014-Sep-14 18:00N 46°42' W 140°54'9916.5 160 / 91016.010.8 0.519.513.420.0
2014-Sep-14 12:00N 45°42' W 139°00'29416.4 120 / 91017.010.8 0.518.512.220.0
2014-Sep-13 18:00N 42°36' W 133°42'27915.8 030 / 161017.610.8 2.020.014.921.0
2014-Sep-13 00:22N 39°25' W 129°12'922.3
2014-Sep-13 00:00N 39°18' W 129°06'511.5 020 / 191014.210.8 2.020.014.920.0
2014-Sep-12 23:32N 39°16' W 128°60'1615.8
2014-Sep-12 22:30N 39°04' W 128°45'1615.6
2014-Sep-12 21:28N 38°53' W 128°30'3416.1
2014-Sep-12 19:20N 38°29' W 127°59'1215.6
2014-Sep-12 18:33N 38°25' W 127°44'1120.0
2014-Sep-12 18:00N 38°24' W 127°30'1013.5 030 / 51014.010.8 1.019.513.419.0
2014-Sep-12 17:15N 38°24' W 127°17'1215.3
2014-Sep-12 16:28N 38°23' W 127°02'1617.9
2014-Sep-12 15:33N 38°22' W 126°41'1717.1
2014-Sep-12 14:33N 38°21' W 126°20'1615.5
2014-Sep-12 13:33N 38°20' W 125°60'1615.8
2014-Sep-12 12:33N 38°19' W 125°40'1221.8
2014-Sep-12 12:00N 38°18' W 125°24'3 7.0 320 / 21012.0 0.0 14.014.017.0
2014-Sep-12 11:33N 38°18' W 125°20'1515.4
2014-Sep-12 10:33N 38°17' W 125°01'1515.3
2014-Sep-12 09:33N 38°15' W 124°41'1515.5
2014-Sep-12 08:33N 38°14' W 124°22'1515.4
2014-Sep-12 07:33N 38°13' W 124°02'1312.9
2014-Sep-12 06:34N 38°12' W 123°46'1413.9
2014-Sep-12 05:33N 38°10' W 123°28'1514.7
2014-Sep-12 04:33N 38°02' W 123°13'1615.5
2014-Sep-12 03:33N 37°53' W 122°57'1514.7
2014-Sep-12 02:33N 37°46' W 122°41'1414.1
2014-Sep-12 01:33N 37°49' W 122°23'3 3.4
2014-Sep-12 00:33N 37°49' W 122°19'0 0.0
2014-Sep-11 23:33N 37°49' W 122°19'0 0.0
2014-Sep-11 22:33N 37°49' W 122°19'0 0.0
2014-Sep-11 21:33N 37°49' W 122°19'0 0.0
2014-Sep-11 20:33N 37°49' W 122°19'0 0.0
2014-Sep-11 19:33N 37°49' W 122°19'0 0.0
2014-Sep-11 18:33N 37°49' W 122°19'0 0.0
2014-Sep-11 17:33N 37°49' W 122°19'0 0.0
2014-Sep-11 16:33N 37°49' W 122°19'0 0.0
2014-Sep-11 15:33N 37°49' W 122°19'0 0.0
2014-Sep-11 14:33N 37°49' W 122°19'2 2.2
2014-Sep-11 13:33N 37°48' W 122°22'9 8.6
2014-Sep-11 12:33N 37°47' W 122°33'1211.6
2014-Sep-11 11:33N 37°42' W 122°45'1110.5
2014-Sep-11 10:33N 37°36' W 122°56'1110.7
2014-Sep-11 09:33N 37°26' W 123°01'1312.8
2014-Sep-11 08:33N 37°13' W 122°58'1313.1
2014-Sep-11 07:33N 37°01' W 122°53'1918.6
2014-Sep-11 06:33N 36°44' W 122°44'2121.3
2014-Sep-11 05:33N 36°24' W 122°33'2121.1
2014-Sep-11 04:33N 36°05' W 122°22'2120.8
2014-Sep-11 03:33N 35°48' W 122°08'2120.9
2014-Sep-11 02:33N 35°31' W 121°52'2120.9
2014-Sep-11 01:33N 35°15' W 121°36'2120.7
2014-Sep-11 00:33N 34°59' W 121°21'1918.6
2014-Sep-10 23:33N 34°44' W 121°07'1412.9
2014-Sep-10 22:28N 34°33' W 120°56'1212.2
2014-Sep-10 21:29N 34°25' W 120°46'1415.4
2014-Sep-10 20:33N 34°21' W 120°29'1715.9
2014-Sep-10 19:29N 34°16' W 120°09'1415.4
2014-Sep-10 18:33N 34°13' W 119°52'1615.7
2014-Sep-10 17:33N 34°09' W 119°34'1616.1
2014-Sep-10 16:33N 34°04' W 119°15'1615.7
2014-Sep-10 15:34N 33°57' W 118°59'1515.1
2014-Sep-10 14:33N 33°49' W 118°43'1111.3
2014-Sep-10 13:33N 33°43' W 118°31'1110.8
2014-Sep-10 12:33N 33°38' W 118°20'6 5.8
2014-Sep-10 11:33N 33°43' W 118°16'1 1.4
2014-Sep-10 10:32N 33°44' W 118°15'0 0.0
2014-Sep-10 09:32N 33°44' W 118°15'0 0.0
2014-Sep-10 08:32N 33°44' W 118°15'0 0.0
2014-Sep-10 07:32N 33°44' W 118°15'0 0.0
2014-Sep-10 06:29N 33°44' W 118°15'0 0.0
2014-Sep-10 05:26N 33°44' W 118°15'0 0.0
2014-Sep-10 04:26N 33°44' W 118°15'0 0.0
2014-Sep-10 03:32N 33°44' W 118°15'0 0.0
2014-Sep-10 02:32N 33°44' W 118°15'0 0.0
2014-Sep-10 01:17N 33°44' W 118°15'0 0.0
2014-Sep-10 00:23N 33°44' W 118°15'0 0.0
2014-Sep-09 23:29N 33°44' W 118°15'0 0.0
2014-Sep-09 22:32N 33°44' W 118°15'0 0.0
2014-Sep-09 21:32N 33°44' W 118°15'0 0.0
2014-Sep-09 20:32N 33°44' W 118°15'0 0.0
2014-Sep-09 19:32N 33°44' W 118°15'0 0.0
2014-Sep-09 17:11N 33°44' W 118°15'0 0.0
2014-Sep-09 16:32N 33°44' W 118°15'0 0.0
2014-Sep-09 15:32N 33°44' W 118°15'0 0.0
2014-Sep-09 13:29N 33°44' W 118°15'0 0.0
2014-Sep-09 12:32N 33°44' W 118°15'0 0.0
2014-Sep-09 11:29N 33°44' W 118°15'0 0.0
2014-Sep-09 10:23N 33°44' W 118°15'0 0.0
2014-Sep-09 09:32N 33°44' W 118°15'0 0.0
2014-Sep-09 08:26N 33°44' W 118°15'0 0.0
2014-Sep-09 07:29N 33°44' W 118°15'0 0.0
2014-Sep-09 06:32N 33°44' W 118°15'0 0.0
2014-Sep-09 05:32N 33°44' W 118°15'0 0.0
2014-Sep-09 04:20N 33°44' W 118°15'0 0.0
2014-Sep-09 03:26N 33°44' W 118°15'0 0.0
2014-Sep-09 02:32N 33°44' W 118°15'0 0.0
2014-Sep-09 00:32N 33°44' W 118°15'0 0.0
2014-Sep-08 23:32N 33°44' W 118°15'0 0.0
2014-Sep-08 22:29N 33°44' W 118°15'0 0.0
2014-Sep-08 21:29N 33°44' W 118°15'0 0.0
2014-Sep-08 20:32N 33°44' W 118°15'0 0.0
2014-Sep-08 18:32N 33°44' W 118°15'0 0.0
2014-Sep-08 17:29N 33°44' W 118°15'0 0.0
2014-Sep-08 16:32N 33°44' W 118°15'0 0.0
2014-Sep-08 15:31N 33°44' W 118°15'0 0.0
2014-Sep-08 14:28N 33°44' W 118°15'0 0.0
2014-Sep-08 13:28N 33°44' W 118°15'0 0.0
2014-Sep-08 12:31N 33°44' W 118°15'0 0.0
2014-Sep-08 11:33N 33°44' W 118°15'4 4.2
2014-Sep-08 10:32N 33°40' W 118°15'7 7.1
2014-Sep-08 09:33N 33°37' W 118°23'1110.9
2014-Sep-08 08:33N 33°43' W 118°34'1212.2
2014-Sep-08 07:33N 33°49' W 118°47'1413.9
2014-Sep-08 06:34N 33°55' W 119°01'1514.5
2014-Sep-08 05:34N 34°02' W 119°17'1414.0
2014-Sep-08 04:33N 34°06' W 119°33'1414.3
2014-Sep-08 03:33N 34°10' W 119°50'1413.8
2014-Sep-08 02:33N 34°14' W 120°06'1413.7
2014-Sep-08 01:33N 34°17' W 120°22'1513.7
2014-Sep-08 00:26N 34°21' W 120°40'4 9.2
2014-Sep-08 00:00N 34°18' W 120°42'1226.5 320 / 151011.010.8 17.013.519.0
2014-Sep-07 23:33N 34°24' W 120°54'2813.8
2014-Sep-07 21:33N 34°30' W 121°27'2019.5
2014-Sep-07 20:33N 34°34' W 121°50'1919.2
2014-Sep-07 19:33N 34°38' W 122°12'1919.0
2014-Sep-07 18:33N 34°42' W 122°35'1119.0
2014-Sep-07 18:00N 34°42' W 122°48'920.7 320 / 101015.010.8 18.513.219.0
2014-Sep-07 17:33N 34°46' W 122°58'2019.0
2014-Sep-07 16:31N 34°51' W 123°21'1818.6
2014-Sep-07 15:33N 34°54' W 123°42'1918.7
2014-Sep-07 14:33N 34°58' W 124°05'2218.4
2014-Sep-07 13:20N 35°03' W 124°32'1518.8
2014-Sep-07 12:33N 35°07' W 124°49'916.4
2014-Sep-07 12:00N 35°06' W 125°00'1522.8 300 / 61014.710.8 18.512.220.0
2014-Sep-07 11:20N 35°13' W 125°16'1618.8
2014-Sep-07 10:30N 35°18' W 125°34'1819.1
2014-Sep-07 09:33N 35°23' W 125°55'1919.2
2014-Sep-07 08:33N 35°29' W 126°18'2118.8
2014-Sep-07 07:26N 35°41' W 126°39'4219.0
2014-Sep-07 05:15N 36°02' W 127°23'12123.0
2014-Sep-07 00:00N 36°48' W 129°42'   320 / 141015.510.8 1.022.514.021.0

Dump ship's entire track history